Hovedside
METAR-TAF:

METAR-TAF

Lufthavner :

Kemi-Torneå lufthavn

Kemi, Finland

breddegrad: 65-47N, lengdegrad: 024-35E, høyde over havet: 15 m

Gjeldene værobservasjon

Denne rapporten ble laget for 37 minutter siden, klokken 15:20 UTC
Vind 12 kt fra Vest-sørvest
Temperatur 19°C
Luftfuktighet 60%
Trykk 1012 hPa
Sikt 10 km eller mer
ingen skyer under 1500 m og ingen bygeskyer

METAR: EFKE 241520Z AUTO 25012KT CAVOK 19/11 Q1012

Tid: 18:57 (15:57 UTC)

Varsel

Denne rapporten ble laget for 4 timer og 23 minutter siden, klokken 11:34 UTC
Varsel gyldig fra 24. klokken 12 UTC til 24. klokken 15 UTC
Vind 11 kt fra Vest-sørvest
Sikt 10 km eller mer
ingen skyer under 1500 m og ingen bygeskyer

TAF: EFKE 241134Z 2412/2415 24011KT CAVOK

Værobservasjoner og værvarsel for over 4000 flyplasser (METAR- og TAF-rapporter).

Tilgjengelige stasjoner er representert av de røde og gule prikkene på kartet.

Hold musepekeren over prikken for å se navnet på stasjonen.

Klikk så for å se værobservasjoner og -varsler.

For å forandre kartet kan du klikke på den grønne knappen med svart kryss for å zoome inn, på den grønne knappen med strek for å zoome ut, eller på de grønne pilene for å se tilstøtende kart.


METAR-TAF: